sensor_id;sensor_type;location;lat;lon;timestamp;P1;durP1;ratioP1;P2;durP2;ratioP2
1390;SDS011;690;51.454;7.194;2023-09-19T00:01:43;4.90;;;2.53;;
1390;SDS011;690;51.454;7.194;2023-09-19T00:04:12;9.23;;;2.87;;
1390;SDS011;690;51.454;7.194;2023-09-19T00:06:39;8.37;;;3.10;;
1390;SDS011;690;51.454;7.194;2023-09-19T00:09:09;5.63;;;2.80;;
1390;SDS011;690;51.454;7.194;2023-09-19T00:11:36;7.43;;;2.53;;
1390;SDS011;690;51.454;7.194;2023-09-19T00:14:03;8.07;;;3.47;;
1390;SDS011;690;51.454;7.194;2023-09-19T00:16:33;4.20;;;2.47;;
1390;SDS011;690;51.454;7.194;2023-09-19T00:19:01;9.87;;;2.90;;
1390;SDS011;690;51.454;7.194;2023-09-19T00:21:35;6.40;;;3.30;;
1390;SDS011;690;51.454;7.194;2023-09-19T00:24:03;7.30;;;2.20;;
1390;SDS011;690;51.454;7.194;2023-09-19T00:26:31;10.37;;;2.20;;
1390;SDS011;690;51.454;7.194;2023-09-19T00:28:59;10.03;;;3.00;;
1390;SDS011;690;51.454;7.194;2023-09-19T00:31:31;11.00;;;2.57;;
1390;SDS011;690;51.454;7.194;2023-09-19T00:33:57;4.23;;;2.57;;
1390;SDS011;690;51.454;7.194;2023-09-19T00:36:29;8.73;;;3.00;;
1390;SDS011;690;51.454;7.194;2023-09-19T00:38:57;13.77;;;2.60;;
1390;SDS011;690;51.454;7.194;2023-09-19T00:41:24;3.53;;;1.90;;
1390;SDS011;690;51.454;7.194;2023-09-19T00:43:51;8.77;;;2.60;;
1390;SDS011;690;51.454;7.194;2023-09-19T00:46:18;13.40;;;2.93;;
1390;SDS011;690;51.454;7.194;2023-09-19T00:48:45;7.47;;;2.70;;
1390;SDS011;690;51.454;7.194;2023-09-19T00:51:14;9.13;;;2.47;;
1390;SDS011;690;51.454;7.194;2023-09-19T00:53:44;10.63;;;3.80;;
1390;SDS011;690;51.454;7.194;2023-09-19T00:56:14;7.17;;;2.67;;
1390;SDS011;690;51.454;7.194;2023-09-19T00:58:43;6.37;;;2.90;;
1390;SDS011;690;51.454;7.194;2023-09-19T01:01:11;6.73;;;2.70;;
1390;SDS011;690;51.454;7.194;2023-09-19T01:03:40;6.27;;;2.53;;
1390;SDS011;690;51.454;7.194;2023-09-19T01:06:07;10.73;;;2.77;;
1390;SDS011;690;51.454;7.194;2023-09-19T01:08:34;5.10;;;2.33;;
1390;SDS011;690;51.454;7.194;2023-09-19T01:11:04;9.33;;;2.47;;
1390;SDS011;690;51.454;7.194;2023-09-19T01:13:44;6.30;;;1.90;;
1390;SDS011;690;51.454;7.194;2023-09-19T01:16:28;9.10;;;2.90;;
1390;SDS011;690;51.454;7.194;2023-09-19T01:19:04;9.60;;;2.50;;
1390;SDS011;690;51.454;7.194;2023-09-19T01:21:48;4.47;;;2.43;;
1390;SDS011;690;51.454;7.194;2023-09-19T01:24:38;8.43;;;2.60;;
1390;SDS011;690;51.454;7.194;2023-09-19T01:27:36;10.20;;;2.73;;
1390;SDS011;690;51.454;7.194;2023-09-19T01:30:26;12.20;;;2.73;;
1390;SDS011;690;51.454;7.194;2023-09-19T01:32:58;10.77;;;2.93;;
1390;SDS011;690;51.454;7.194;2023-09-19T01:35:26;10.93;;;3.13;;
1390;SDS011;690;51.454;7.194;2023-09-19T01:37:53;13.03;;;3.17;;
1390;SDS011;690;51.454;7.194;2023-09-19T01:40:19;7.30;;;3.50;;
1390;SDS011;690;51.454;7.194;2023-09-19T01:42:50;12.13;;;3.00;;
1390;SDS011;690;51.454;7.194;2023-09-19T01:45:28;5.70;;;1.90;;
1390;SDS011;690;51.454;7.194;2023-09-19T01:48:02;10.20;;;2.30;;
1390;SDS011;690;51.454;7.194;2023-09-19T01:50:41;8.97;;;3.17;;
1390;SDS011;690;51.454;7.194;2023-09-19T01:53:15;10.53;;;2.90;;
1390;SDS011;690;51.454;7.194;2023-09-19T01:55:53;11.47;;;2.70;;
1390;SDS011;690;51.454;7.194;2023-09-19T01:58:21;10.37;;;3.07;;
1390;SDS011;690;51.454;7.194;2023-09-19T02:00:57;8.70;;;3.20;;
1390;SDS011;690;51.454;7.194;2023-09-19T02:03:26;9.90;;;3.10;;
1390;SDS011;690;51.454;7.194;2023-09-19T02:05:53;9.00;;;3.33;;
1390;SDS011;690;51.454;7.194;2023-09-19T02:08:21;10.80;;;3.10;;
1390;SDS011;690;51.454;7.194;2023-09-19T02:10:49;10.13;;;2.43;;
1390;SDS011;690;51.454;7.194;2023-09-19T02:13:18;9.03;;;2.60;;
1390;SDS011;690;51.454;7.194;2023-09-19T02:15:46;10.13;;;2.80;;
1390;SDS011;690;51.454;7.194;2023-09-19T02:18:14;10.83;;;2.30;;
1390;SDS011;690;51.454;7.194;2023-09-19T02:20:42;6.00;;;2.40;;
1390;SDS011;690;51.454;7.194;2023-09-19T02:23:09;9.23;;;2.73;;
1390;SDS011;690;51.454;7.194;2023-09-19T02:25:37;7.27;;;2.80;;
1390;SDS011;690;51.454;7.194;2023-09-19T02:28:06;13.97;;;3.13;;
1390;SDS011;690;51.454;7.194;2023-09-19T02:30:34;7.07;;;2.67;;
1390;SDS011;690;51.454;7.194;2023-09-19T02:33:01;8.57;;;2.70;;
1390;SDS011;690;51.454;7.194;2023-09-19T02:35:32;7.27;;;2.40;;
1390;SDS011;690;51.454;7.194;2023-09-19T02:38:01;6.60;;;2.83;;
1390;SDS011;690;51.454;7.194;2023-09-19T02:40:31;10.50;;;2.30;;
1390;SDS011;690;51.454;7.194;2023-09-19T02:43:00;9.63;;;2.90;;
1390;SDS011;690;51.454;7.194;2023-09-19T02:45:28;11.47;;;2.80;;
1390;SDS011;690;51.454;7.194;2023-09-19T02:47:55;8.50;;;3.17;;
1390;SDS011;690;51.454;7.194;2023-09-19T02:50:23;9.57;;;2.77;;
1390;SDS011;690;51.454;7.194;2023-09-19T02:52:51;9.27;;;2.60;;
1390;SDS011;690;51.454;7.194;2023-09-19T02:55:19;9.10;;;2.57;;
1390;SDS011;690;51.454;7.194;2023-09-19T02:57:47;10.10;;;3.27;;
1390;SDS011;690;51.454;7.194;2023-09-19T03:00:15;9.90;;;3.00;;
1390;SDS011;690;51.454;7.194;2023-09-19T03:02:46;8.30;;;3.57;;
1390;SDS011;690;51.454;7.194;2023-09-19T03:05:13;14.37;;;4.33;;
1390;SDS011;690;51.454;7.194;2023-09-19T03:07:40;7.87;;;2.90;;
1390;SDS011;690;51.454;7.194;2023-09-19T03:10:09;9.40;;;2.67;;
1390;SDS011;690;51.454;7.194;2023-09-19T03:12:36;10.40;;;3.00;;
1390;SDS011;690;51.454;7.194;2023-09-19T03:15:05;9.50;;;2.90;;
1390;SDS011;690;51.454;7.194;2023-09-19T03:17:33;11.40;;;3.40;;
1390;SDS011;690;51.454;7.194;2023-09-19T03:20:01;7.20;;;2.57;;
1390;SDS011;690;51.454;7.194;2023-09-19T03:22:29;8.70;;;3.30;;
1390;SDS011;690;51.454;7.194;2023-09-19T03:24:56;6.63;;;2.77;;
1390;SDS011;690;51.454;7.194;2023-09-19T03:27:25;8.77;;;2.60;;
1390;SDS011;690;51.454;7.194;2023-09-19T03:29:52;11.50;;;2.90;;
1390;SDS011;690;51.454;7.194;2023-09-19T03:32:19;4.87;;;2.57;;
1390;SDS011;690;51.454;7.194;2023-09-19T03:34:46;12.67;;;2.93;;
1390;SDS011;690;51.454;7.194;2023-09-19T03:37:13;8.50;;;3.57;;
1390;SDS011;690;51.454;7.194;2023-09-19T03:39:41;10.67;;;2.10;;
1390;SDS011;690;51.454;7.194;2023-09-19T03:42:08;5.27;;;2.13;;
1390;SDS011;690;51.454;7.194;2023-09-19T03:44:36;6.57;;;2.33;;
1390;SDS011;690;51.454;7.194;2023-09-19T03:47:03;9.03;;;2.60;;
1390;SDS011;690;51.454;7.194;2023-09-19T03:49:30;11.70;;;2.83;;
1390;SDS011;690;51.454;7.194;2023-09-19T03:51:57;8.33;;;2.60;;
1390;SDS011;690;51.454;7.194;2023-09-19T03:54:24;9.80;;;2.90;;
1390;SDS011;690;51.454;7.194;2023-09-19T03:56:51;11.10;;;2.63;;
1390;SDS011;690;51.454;7.194;2023-09-19T03:59:18;6.03;;;2.57;;
1390;SDS011;690;51.454;7.194;2023-09-19T04:01:46;8.50;;;2.43;;
1390;SDS011;690;51.454;7.194;2023-09-19T04:04:13;9.83;;;2.73;;
1390;SDS011;690;51.454;7.194;2023-09-19T04:06:40;6.43;;;2.50;;
1390;SDS011;690;51.454;7.194;2023-09-19T04:09:07;6.33;;;3.00;;
1390;SDS011;690;51.454;7.194;2023-09-19T04:11:34;6.80;;;2.03;;
1390;SDS011;690;51.454;7.194;2023-09-19T04:14:02;6.80;;;2.77;;
1390;SDS011;690;51.454;7.194;2023-09-19T04:16:30;9.00;;;2.57;;
1390;SDS011;690;51.454;7.194;2023-09-19T04:18:58;12.40;;;3.30;;
1390;SDS011;690;51.454;7.194;2023-09-19T04:21:25;6.13;;;2.37;;
1390;SDS011;690;51.454;7.194;2023-09-19T04:23:53;6.80;;;2.20;;
1390;SDS011;690;51.454;7.194;2023-09-19T04:26:20;6.53;;;2.23;;
1390;SDS011;690;51.454;7.194;2023-09-19T04:28:47;9.00;;;2.30;;
1390;SDS011;690;51.454;7.194;2023-09-19T04:31:14;10.10;;;2.37;;
1390;SDS011;690;51.454;7.194;2023-09-19T04:33:42;5.50;;;2.03;;
1390;SDS011;690;51.454;7.194;2023-09-19T04:36:11;5.90;;;2.50;;
1390;SDS011;690;51.454;7.194;2023-09-19T04:38:38;9.47;;;2.87;;
1390;SDS011;690;51.454;7.194;2023-09-19T04:41:05;7.70;;;2.40;;
1390;SDS011;690;51.454;7.194;2023-09-19T04:43:32;10.13;;;2.57;;
1390;SDS011;690;51.454;7.194;2023-09-19T04:45:58;7.60;;;2.20;;
1390;SDS011;690;51.454;7.194;2023-09-19T04:48:25;9.23;;;2.47;;
1390;SDS011;690;51.454;7.194;2023-09-19T04:50:54;9.10;;;3.37;;
1390;SDS011;690;51.454;7.194;2023-09-19T04:53:24;5.57;;;2.80;;
1390;SDS011;690;51.454;7.194;2023-09-19T04:55:51;7.90;;;2.40;;
1390;SDS011;690;51.454;7.194;2023-09-19T04:58:20;8.10;;;2.30;;
1390;SDS011;690;51.454;7.194;2023-09-19T05:00:47;8.43;;;2.70;;
1390;SDS011;690;51.454;7.194;2023-09-19T05:03:16;10.17;;;3.00;;
1390;SDS011;690;51.454;7.194;2023-09-19T05:05:46;7.63;;;2.30;;
1390;SDS011;690;51.454;7.194;2023-09-19T05:08:13;8.70;;;2.80;;
1390;SDS011;690;51.454;7.194;2023-09-19T05:10:42;8.10;;;2.97;;
1390;SDS011;690;51.454;7.194;2023-09-19T05:13:08;4.90;;;2.40;;
1390;SDS011;690;51.454;7.194;2023-09-19T05:15:37;9.23;;;2.80;;
1390;SDS011;690;51.454;7.194;2023-09-19T05:18:04;7.40;;;2.70;;
1390;SDS011;690;51.454;7.194;2023-09-19T05:20:31;9.00;;;2.53;;
1390;SDS011;690;51.454;7.194;2023-09-19T05:23:05;14.57;;;3.00;;
1390;SDS011;690;51.454;7.194;2023-09-19T05:25:37;7.23;;;2.60;;
1390;SDS011;690;51.454;7.194;2023-09-19T05:28:07;9.00;;;2.43;;
1390;SDS011;690;51.454;7.194;2023-09-19T05:30:36;12.00;;;3.17;;
1390;SDS011;690;51.454;7.194;2023-09-19T05:33:04;7.63;;;2.80;;
1390;SDS011;690;51.454;7.194;2023-09-19T05:35:32;9.50;;;3.00;;
1390;SDS011;690;51.454;7.194;2023-09-19T05:37:59;8.63;;;3.30;;
1390;SDS011;690;51.454;7.194;2023-09-19T05:40:26;10.73;;;4.30;;
1390;SDS011;690;51.454;7.194;2023-09-19T05:42:53;10.07;;;3.30;;
1390;SDS011;690;51.454;7.194;2023-09-19T05:45:22;11.50;;;3.00;;
1390;SDS011;690;51.454;7.194;2023-09-19T05:47:49;14.60;;;3.57;;
1390;SDS011;690;51.454;7.194;2023-09-19T05:50:16;7.27;;;2.20;;
1390;SDS011;690;51.454;7.194;2023-09-19T05:52:51;7.00;;;3.00;;
1390;SDS011;690;51.454;7.194;2023-09-19T05:55:18;8.90;;;2.97;;
1390;SDS011;690;51.454;7.194;2023-09-19T05:57:49;6.23;;;3.13;;
1390;SDS011;690;51.454;7.194;2023-09-19T06:00:18;6.53;;;3.00;;
1390;SDS011;690;51.454;7.194;2023-09-19T06:02:50;7.90;;;2.63;;
1390;SDS011;690;51.454;7.194;2023-09-19T06:05:18;8.73;;;3.40;;
1390;SDS011;690;51.454;7.194;2023-09-19T06:07:45;10.70;;;3.13;;
1390;SDS011;690;51.454;7.194;2023-09-19T06:10:12;6.10;;;2.03;;
1390;SDS011;690;51.454;7.194;2023-09-19T06:12:39;8.33;;;2.60;;
1390;SDS011;690;51.454;7.194;2023-09-19T06:15:08;13.93;;;3.43;;
1390;SDS011;690;51.454;7.194;2023-09-19T06:17:40;12.40;;;2.80;;
1390;SDS011;690;51.454;7.194;2023-09-19T06:20:09;7.47;;;2.37;;
1390;SDS011;690;51.454;7.194;2023-09-19T06:22:38;5.93;;;2.40;;
1390;SDS011;690;51.454;7.194;2023-09-19T06:25:06;11.67;;;2.27;;
1390;SDS011;690;51.454;7.194;2023-09-19T06:27:36;7.97;;;3.10;;
1390;SDS011;690;51.454;7.194;2023-09-19T06:30:05;8.60;;;2.87;;
1390;SDS011;690;51.454;7.194;2023-09-19T06:32:33;8.50;;;2.10;;
1390;SDS011;690;51.454;7.194;2023-09-19T06:35:00;7.57;;;3.30;;
1390;SDS011;690;51.454;7.194;2023-09-19T06:37:29;9.77;;;2.60;;
1390;SDS011;690;51.454;7.194;2023-09-19T06:39:56;9.57;;;2.43;;
1390;SDS011;690;51.454;7.194;2023-09-19T06:42:23;8.27;;;2.70;;
1390;SDS011;690;51.454;7.194;2023-09-19T06:44:50;8.90;;;3.30;;
1390;SDS011;690;51.454;7.194;2023-09-19T06:47:18;8.53;;;2.67;;
1390;SDS011;690;51.454;7.194;2023-09-19T06:49:45;6.07;;;2.60;;
1390;SDS011;690;51.454;7.194;2023-09-19T06:52:13;10.50;;;2.37;;
1390;SDS011;690;51.454;7.194;2023-09-19T06:54:41;8.73;;;3.30;;
1390;SDS011;690;51.454;7.194;2023-09-19T06:57:08;9.50;;;2.90;;
1390;SDS011;690;51.454;7.194;2023-09-19T06:59:35;8.00;;;2.77;;
1390;SDS011;690;51.454;7.194;2023-09-19T07:02:02;10.10;;;2.60;;
1390;SDS011;690;51.454;7.194;2023-09-19T07:04:31;5.97;;;2.77;;
1390;SDS011;690;51.454;7.194;2023-09-19T07:06:58;5.83;;;3.20;;
1390;SDS011;690;51.454;7.194;2023-09-19T07:09:25;7.73;;;2.20;;
1390;SDS011;690;51.454;7.194;2023-09-19T07:11:55;8.17;;;2.70;;
1390;SDS011;690;51.454;7.194;2023-09-19T07:14:22;7.20;;;2.63;;
1390;SDS011;690;51.454;7.194;2023-09-19T07:16:49;10.70;;;2.63;;
1390;SDS011;690;51.454;7.194;2023-09-19T07:19:17;10.07;;;2.80;;
1390;SDS011;690;51.454;7.194;2023-09-19T07:21:44;13.00;;;3.73;;
1390;SDS011;690;51.454;7.194;2023-09-19T07:24:12;11.27;;;2.80;;
1390;SDS011;690;51.454;7.194;2023-09-19T07:26:39;11.60;;;2.73;;
1390;SDS011;690;51.454;7.194;2023-09-19T07:29:08;13.10;;;3.30;;
1390;SDS011;690;51.454;7.194;2023-09-19T07:31:35;9.10;;;2.63;;
1390;SDS011;690;51.454;7.194;2023-09-19T07:34:02;11.23;;;2.43;;
1390;SDS011;690;51.454;7.194;2023-09-19T07:36:30;7.97;;;2.90;;
1390;SDS011;690;51.454;7.194;2023-09-19T07:38:57;11.53;;;3.00;;
1390;SDS011;690;51.454;7.194;2023-09-19T07:41:25;10.47;;;3.40;;
1390;SDS011;690;51.454;7.194;2023-09-19T07:43:52;5.93;;;2.40;;
1390;SDS011;690;51.454;7.194;2023-09-19T07:46:21;7.33;;;2.73;;
1390;SDS011;690;51.454;7.194;2023-09-19T07:48:49;7.50;;;2.27;;
1390;SDS011;690;51.454;7.194;2023-09-19T07:51:16;8.47;;;2.53;;
1390;SDS011;690;51.454;7.194;2023-09-19T07:53:44;8.00;;;2.67;;
1390;SDS011;690;51.454;7.194;2023-09-19T07:56:11;14.77;;;2.60;;
1390;SDS011;690;51.454;7.194;2023-09-19T07:58:38;10.23;;;3.00;;
1390;SDS011;690;51.454;7.194;2023-09-19T08:01:12;9.80;;;3.00;;
1390;SDS011;690;51.454;7.194;2023-09-19T08:03:42;13.93;;;2.60;;
1390;SDS011;690;51.454;7.194;2023-09-19T08:06:10;7.13;;;2.60;;
1390;SDS011;690;51.454;7.194;2023-09-19T08:08:39;7.97;;;2.13;;
1390;SDS011;690;51.454;7.194;2023-09-19T08:11:06;8.13;;;2.57;;
1390;SDS011;690;51.454;7.194;2023-09-19T08:13:36;9.50;;;2.70;;
1390;SDS011;690;51.454;7.194;2023-09-19T08:16:06;11.67;;;2.73;;
1390;SDS011;690;51.454;7.194;2023-09-19T08:18:33;10.80;;;3.10;;
1390;SDS011;690;51.454;7.194;2023-09-19T08:21:01;9.97;;;3.60;;
1390;SDS011;690;51.454;7.194;2023-09-19T08:23:28;17.30;;;3.07;;
1390;SDS011;690;51.454;7.194;2023-09-19T08:25:57;5.37;;;2.17;;
1390;SDS011;690;51.454;7.194;2023-09-19T08:28:26;10.53;;;2.97;;
1390;SDS011;690;51.454;7.194;2023-09-19T08:30:55;7.67;;;3.00;;
1390;SDS011;690;51.454;7.194;2023-09-19T08:33:23;12.10;;;3.03;;
1390;SDS011;690;51.454;7.194;2023-09-19T08:35:50;10.20;;;2.50;;
1390;SDS011;690;51.454;7.194;2023-09-19T08:38:18;11.17;;;2.70;;
1390;SDS011;690;51.454;7.194;2023-09-19T08:40:45;11.80;;;2.80;;
1390;SDS011;690;51.454;7.194;2023-09-19T08:43:12;7.50;;;2.40;;
1390;SDS011;690;51.454;7.194;2023-09-19T08:45:39;6.93;;;2.60;;
1390;SDS011;690;51.454;7.194;2023-09-19T08:48:12;8.77;;;2.60;;
1390;SDS011;690;51.454;7.194;2023-09-19T08:50:48;15.43;;;4.07;;
1390;SDS011;690;51.454;7.194;2023-09-19T08:53:19;9.00;;;2.60;;
1390;SDS011;690;51.454;7.194;2023-09-19T08:55:54;7.60;;;2.50;;
1390;SDS011;690;51.454;7.194;2023-09-19T08:58:23;7.77;;;2.13;;
1390;SDS011;690;51.454;7.194;2023-09-19T09:00:54;8.73;;;2.03;;
1390;SDS011;690;51.454;7.194;2023-09-19T09:03:22;7.10;;;2.90;;
1390;SDS011;690;51.454;7.194;2023-09-19T09:05:51;5.50;;;1.90;;
1390;SDS011;690;51.454;7.194;2023-09-19T09:08:18;7.23;;;3.00;;
1390;SDS011;690;51.454;7.194;2023-09-19T09:10:48;9.90;;;3.33;;
1390;SDS011;690;51.454;7.194;2023-09-19T09:13:16;7.30;;;2.60;;
1390;SDS011;690;51.454;7.194;2023-09-19T09:15:43;6.50;;;2.93;;
1390;SDS011;690;51.454;7.194;2023-09-19T09:18:10;9.60;;;2.70;;
1390;SDS011;690;51.454;7.194;2023-09-19T09:20:38;5.93;;;2.47;;
1390;SDS011;690;51.454;7.194;2023-09-19T09:23:06;10.90;;;3.43;;
1390;SDS011;690;51.454;7.194;2023-09-19T09:25:51;10.63;;;3.37;;
1390;SDS011;690;51.454;7.194;2023-09-19T09:28:21;9.73;;;3.30;;
1390;SDS011;690;51.454;7.194;2023-09-19T09:30:49;6.73;;;2.90;;
1390;SDS011;690;51.454;7.194;2023-09-19T09:33:17;10.70;;;2.53;;
1390;SDS011;690;51.454;7.194;2023-09-19T09:35:47;6.97;;;2.63;;
1390;SDS011;690;51.454;7.194;2023-09-19T09:38:19;8.87;;;2.27;;
1390;SDS011;690;51.454;7.194;2023-09-19T09:40:52;7.10;;;2.70;;
1390;SDS011;690;51.454;7.194;2023-09-19T09:43:25;8.67;;;2.20;;
1390;SDS011;690;51.454;7.194;2023-09-19T09:46:06;8.47;;;2.80;;
1390;SDS011;690;51.454;7.194;2023-09-19T09:48:44;6.87;;;2.93;;
1390;SDS011;690;51.454;7.194;2023-09-19T09:51:28;9.07;;;2.80;;
1390;SDS011;690;51.454;7.194;2023-09-19T09:54:09;7.80;;;2.37;;
1390;SDS011;690;51.454;7.194;2023-09-19T09:56:42;7.20;;;2.57;;
1390;SDS011;690;51.454;7.194;2023-09-19T09:59:19;9.50;;;2.80;;
1390;SDS011;690;51.454;7.194;2023-09-19T10:01:49;9.30;;;2.80;;
1390;SDS011;690;51.454;7.194;2023-09-19T10:04:27;12.40;;;2.53;;
1390;SDS011;690;51.454;7.194;2023-09-19T10:06:57;10.70;;;2.90;;
1390;SDS011;690;51.454;7.194;2023-09-19T10:09:30;8.50;;;2.77;;
1390;SDS011;690;51.454;7.194;2023-09-19T10:12:05;8.40;;;2.70;;
1390;SDS011;690;51.454;7.194;2023-09-19T10:14:35;8.77;;;2.77;;
1390;SDS011;690;51.454;7.194;2023-09-19T10:17:04;6.90;;;2.13;;
1390;SDS011;690;51.454;7.194;2023-09-19T10:19:36;6.80;;;2.70;;
1390;SDS011;690;51.454;7.194;2023-09-19T10:22:11;11.23;;;2.80;;
1390;SDS011;690;51.454;7.194;2023-09-19T10:24:43;8.93;;;2.83;;
1390;SDS011;690;51.454;7.194;2023-09-19T10:27:13;10.07;;;2.80;;
1390;SDS011;690;51.454;7.194;2023-09-19T10:29:41;9.07;;;2.80;;
1390;SDS011;690;51.454;7.194;2023-09-19T10:32:12;9.50;;;2.93;;
1390;SDS011;690;51.454;7.194;2023-09-19T10:34:44;6.30;;;2.23;;
1390;SDS011;690;51.454;7.194;2023-09-19T10:37:13;8.13;;;2.90;;
1390;SDS011;690;51.454;7.194;2023-09-19T10:39:42;8.90;;;3.13;;
1390;SDS011;690;51.454;7.194;2023-09-19T10:42:14;7.57;;;2.60;;
1390;SDS011;690;51.454;7.194;2023-09-19T10:44:46;7.47;;;2.57;;
1390;SDS011;690;51.454;7.194;2023-09-19T10:47:18;9.33;;;2.97;;
1390;SDS011;690;51.454;7.194;2023-09-19T10:49:45;9.27;;;2.60;;
1390;SDS011;690;51.454;7.194;2023-09-19T10:52:13;14.27;;;3.10;;
1390;SDS011;690;51.454;7.194;2023-09-19T10:54:45;6.23;;;2.70;;
1390;SDS011;690;51.454;7.194;2023-09-19T10:57:19;6.10;;;2.40;;
1390;SDS011;690;51.454;7.194;2023-09-19T11:00:02;7.07;;;3.13;;
1390;SDS011;690;51.454;7.194;2023-09-19T11:06:02;5.60;;;2.67;;
1390;SDS011;690;51.454;7.194;2023-09-19T11:08:53;8.30;;;2.47;;
1390;SDS011;690;51.454;7.194;2023-09-19T11:14:28;9.77;;;3.00;;
1390;SDS011;690;51.454;7.194;2023-09-19T11:23:22;6.07;;;2.17;;
1390;SDS011;690;51.454;7.194;2023-09-19T11:25:51;4.47;;;2.60;;
1390;SDS011;690;51.454;7.194;2023-09-19T11:40:32;5.20;;;2.30;;
1390;SDS011;690;51.454;7.194;2023-09-19T11:43:06;11.97;;;3.10;;
1390;SDS011;690;51.454;7.194;2023-09-19T11:46:08;3.50;;;2.00;;
1390;SDS011;690;51.454;7.194;2023-09-19T11:48:37;5.60;;;1.90;;
1390;SDS011;690;51.454;7.194;2023-09-19T11:51:12;6.73;;;2.90;;
1390;SDS011;690;51.454;7.194;2023-09-19T11:53:47;4.20;;;2.57;;
1390;SDS011;690;51.454;7.194;2023-09-19T11:56:15;6.27;;;2.40;;
1390;SDS011;690;51.454;7.194;2023-09-19T11:58:43;4.10;;;2.27;;
1390;SDS011;690;51.454;7.194;2023-09-19T12:01:12;6.20;;;1.93;;
1390;SDS011;690;51.454;7.194;2023-09-19T12:03:46;9.03;;;2.40;;
1390;SDS011;690;51.454;7.194;2023-09-19T12:06:19;6.80;;;2.53;;
1390;SDS011;690;51.454;7.194;2023-09-19T12:08:47;7.13;;;3.30;;
1390;SDS011;690;51.454;7.194;2023-09-19T12:11:15;7.30;;;3.07;;
1390;SDS011;690;51.454;7.194;2023-09-19T12:13:43;6.73;;;2.50;;
1390;SDS011;690;51.454;7.194;2023-09-19T12:16:14;7.40;;;2.80;;
1390;SDS011;690;51.454;7.194;2023-09-19T12:18:43;4.43;;;2.30;;
1390;SDS011;690;51.454;7.194;2023-09-19T12:21:23;7.10;;;3.23;;
1390;SDS011;690;51.454;7.194;2023-09-19T12:26:44;8.23;;;2.30;;
1390;SDS011;690;51.454;7.194;2023-09-19T12:29:14;5.07;;;2.70;;
1390;SDS011;690;51.454;7.194;2023-09-19T12:31:47;6.27;;;2.30;;
1390;SDS011;690;51.454;7.194;2023-09-19T12:34:21;7.27;;;2.87;;
1390;SDS011;690;51.454;7.194;2023-09-19T12:37:04;6.13;;;2.90;;
1390;SDS011;690;51.454;7.194;2023-09-19T12:39:36;3.37;;;2.20;;
1390;SDS011;690;51.454;7.194;2023-09-19T12:42:06;8.53;;;2.10;;
1390;SDS011;690;51.454;7.194;2023-09-19T12:44:35;5.50;;;2.00;;
1390;SDS011;690;51.454;7.194;2023-09-19T12:47:10;5.60;;;2.60;;
1390;SDS011;690;51.454;7.194;2023-09-19T12:52:40;7.17;;;2.43;;
1390;SDS011;690;51.454;7.194;2023-09-19T12:55:08;4.87;;;2.40;;
1390;SDS011;690;51.454;7.194;2023-09-19T12:57:55;5.67;;;2.20;;
1390;SDS011;690;51.454;7.194;2023-09-19T13:00:37;5.57;;;2.63;;
1390;SDS011;690;51.454;7.194;2023-09-19T13:03:17;8.43;;;3.00;;
1390;SDS011;690;51.454;7.194;2023-09-19T13:05:47;6.17;;;2.53;;
1390;SDS011;690;51.454;7.194;2023-09-19T13:08:23;4.47;;;2.30;;
1390;SDS011;690;51.454;7.194;2023-09-19T13:11:04;9.67;;;2.67;;
1390;SDS011;690;51.454;7.194;2023-09-19T13:13:32;7.87;;;2.97;;
1390;SDS011;690;51.454;7.194;2023-09-19T13:16:01;3.80;;;1.90;;
1390;SDS011;690;51.454;7.194;2023-09-19T13:18:29;8.17;;;2.13;;
1390;SDS011;690;51.454;7.194;2023-09-19T13:21:07;4.97;;;2.40;;
1390;SDS011;690;51.454;7.194;2023-09-19T13:23:41;6.33;;;2.07;;
1390;SDS011;690;51.454;7.194;2023-09-19T13:26:09;2.30;;;1.57;;
1390;SDS011;690;51.454;7.194;2023-09-19T13:28:37;6.90;;;2.17;;
1390;SDS011;690;51.454;7.194;2023-09-19T13:31:04;4.97;;;2.83;;
1390;SDS011;690;51.454;7.194;2023-09-19T13:33:32;9.80;;;2.57;;
1390;SDS011;690;51.454;7.194;2023-09-19T13:36:00;4.30;;;1.63;;
1390;SDS011;690;51.454;7.194;2023-09-19T13:38:28;5.00;;;1.67;;
1390;SDS011;690;51.454;7.194;2023-09-19T13:40:57;3.77;;;1.80;;
1390;SDS011;690;51.454;7.194;2023-09-19T13:43:25;4.93;;;1.87;;
1390;SDS011;690;51.454;7.194;2023-09-19T13:45:54;2.80;;;1.97;;
1390;SDS011;690;51.454;7.194;2023-09-19T13:48:22;3.30;;;1.53;;
1390;SDS011;690;51.454;7.194;2023-09-19T13:50:49;6.70;;;2.30;;
1390;SDS011;690;51.454;7.194;2023-09-19T13:53:16;3.97;;;1.83;;
1390;SDS011;690;51.454;7.194;2023-09-19T13:55:44;4.70;;;1.80;;
1390;SDS011;690;51.454;7.194;2023-09-19T13:58:13;6.20;;;1.77;;
1390;SDS011;690;51.454;7.194;2023-09-19T14:00:40;4.73;;;1.43;;
1390;SDS011;690;51.454;7.194;2023-09-19T14:03:08;6.03;;;1.40;;
1390;SDS011;690;51.454;7.194;2023-09-19T14:05:39;8.07;;;2.33;;
1390;SDS011;690;51.454;7.194;2023-09-19T14:08:07;6.30;;;1.20;;
1390;SDS011;690;51.454;7.194;2023-09-19T14:10:37;4.70;;;1.77;;
1390;SDS011;690;51.454;7.194;2023-09-19T14:13:04;3.07;;;1.90;;
1390;SDS011;690;51.454;7.194;2023-09-19T14:15:32;3.10;;;1.10;;
1390;SDS011;690;51.454;7.194;2023-09-19T14:18:04;5.83;;;1.77;;
1390;SDS011;690;51.454;7.194;2023-09-19T14:20:31;10.10;;;2.43;;
1390;SDS011;690;51.454;7.194;2023-09-19T14:22:58;4.40;;;1.40;;
1390;SDS011;690;51.454;7.194;2023-09-19T14:25:26;3.43;;;1.50;;
1390;SDS011;690;51.454;7.194;2023-09-19T14:27:54;4.00;;;1.73;;
1390;SDS011;690;51.454;7.194;2023-09-19T14:30:20;4.83;;;1.50;;
1390;SDS011;690;51.454;7.194;2023-09-19T14:32:49;4.67;;;1.50;;
1390;SDS011;690;51.454;7.194;2023-09-19T14:35:16;2.23;;;1.10;;
1390;SDS011;690;51.454;7.194;2023-09-19T14:37:43;3.70;;;1.40;;
1390;SDS011;690;51.454;7.194;2023-09-19T14:40:10;4.83;;;1.90;;
1390;SDS011;690;51.454;7.194;2023-09-19T14:42:40;5.10;;;1.70;;
1390;SDS011;690;51.454;7.194;2023-09-19T14:45:09;3.73;;;1.60;;
1390;SDS011;690;51.454;7.194;2023-09-19T14:47:36;5.47;;;1.60;;
1390;SDS011;690;51.454;7.194;2023-09-19T14:50:06;2.63;;;1.87;;
1390;SDS011;690;51.454;7.194;2023-09-19T14:52:33;7.60;;;1.77;;
1390;SDS011;690;51.454;7.194;2023-09-19T14:55:01;4.87;;;1.50;;
1390;SDS011;690;51.454;7.194;2023-09-19T14:57:29;3.90;;;1.07;;
1390;SDS011;690;51.454;7.194;2023-09-19T14:59:57;8.93;;;1.87;;
1390;SDS011;690;51.454;7.194;2023-09-19T15:02:25;1.90;;;1.13;;
1390;SDS011;690;51.454;7.194;2023-09-19T15:04:52;2.73;;;1.10;;
1390;SDS011;690;51.454;7.194;2023-09-19T15:07:20;5.30;;;1.50;;
1390;SDS011;690;51.454;7.194;2023-09-19T15:09:47;5.70;;;1.10;;
1390;SDS011;690;51.454;7.194;2023-09-19T15:12:14;7.10;;;1.67;;
1390;SDS011;690;51.454;7.194;2023-09-19T15:14:42;4.17;;;1.80;;
1390;SDS011;690;51.454;7.194;2023-09-19T15:17:09;5.10;;;1.07;;
1390;SDS011;690;51.454;7.194;2023-09-19T15:19:35;5.43;;;1.37;;
1390;SDS011;690;51.454;7.194;2023-09-19T15:22:04;5.27;;;1.83;;
1390;SDS011;690;51.454;7.194;2023-09-19T15:24:33;3.60;;;1.13;;
1390;SDS011;690;51.454;7.194;2023-09-19T15:27:00;4.03;;;1.50;;
1390;SDS011;690;51.454;7.194;2023-09-19T15:29:27;2.77;;;1.53;;
1390;SDS011;690;51.454;7.194;2023-09-19T15:31:54;6.90;;;1.67;;
1390;SDS011;690;51.454;7.194;2023-09-19T15:34:23;3.33;;;1.37;;
1390;SDS011;690;51.454;7.194;2023-09-19T15:36:50;3.50;;;1.30;;
1390;SDS011;690;51.454;7.194;2023-09-19T15:39:18;3.90;;;1.20;;
1390;SDS011;690;51.454;7.194;2023-09-19T15:41:48;4.60;;;1.70;;
1390;SDS011;690;51.454;7.194;2023-09-19T15:44:17;2.50;;;1.37;;
1390;SDS011;690;51.454;7.194;2023-09-19T15:46:45;2.30;;;1.40;;
1390;SDS011;690;51.454;7.194;2023-09-19T15:49:12;3.53;;;1.60;;
1390;SDS011;690;51.454;7.194;2023-09-19T15:51:39;3.50;;;1.17;;
1390;SDS011;690;51.454;7.194;2023-09-19T15:54:08;4.10;;;1.33;;
1390;SDS011;690;51.454;7.194;2023-09-19T15:56:38;4.93;;;1.63;;
1390;SDS011;690;51.454;7.194;2023-09-19T15:59:07;3.30;;;1.63;;
1390;SDS011;690;51.454;7.194;2023-09-19T16:01:37;2.83;;;1.13;;
1390;SDS011;690;51.454;7.194;2023-09-19T16:04:05;3.03;;;1.20;;
1390;SDS011;690;51.454;7.194;2023-09-19T16:06:33;2.90;;;1.10;;
1390;SDS011;690;51.454;7.194;2023-09-19T16:09:01;3.37;;;1.00;;
1390;SDS011;690;51.454;7.194;2023-09-19T16:11:31;2.10;;;1.10;;
1390;SDS011;690;51.454;7.194;2023-09-19T16:14:00;2.27;;;0.80;;